Middletown, PA

9:47 AM EDT on May 23, 2015 (GMT -0400)
Muir Army Air Field | | Change Station
CLOSE
Current Station
Airport
Location: Fort Indiantown Gap,
Elevation: 489 ft
Nearby Weather Stations

Elev 489 ft 40.43 °N, 76.57 °W | Updated 49 minutes ago

Clear
Clear
52 °F
Feels Like 52 °F
N
2
Wind Variable Wind from Variable

Today
High -- | Low -- °F
--% Chance of Precip.
Yesterday
High -- | Low -- °F
Precip. -- in
5:44 AM 8:22 PM
Waxing Crescent, 30% visible
Pressure 30.46 in
Visibility 10.0 miles
Clouds Clear
Dew Point 29 °F
Humidity 41%
Rainfall 0.00 in
Snow Depth Not available.
UV 4 out of 12
Pollen 8.30 out of 12
Air Quality Not available.
Flu Activity Sporadic
METAR KMUI 231258Z AUTO VRB02KT 10SM CLR 11/M02 A3045 RMK AO2 SLP314 T01101017 $

More Conditions Fewer Conditions

Pressure 30.46 in
Visibility 10.0 miles
Clouds Clear
Dew Point 29 °F
Humidity 41%
Rainfall 0.00 in
Snow Depth Not available.
UV 4 out of 12
Pollen 8.30 out of 12
Air Quality Not available.
Flu Activity Sporadic
METAR KMUI 231258Z AUTO VRB02KT 10SM CLR 11/M02 A3045 RMK AO2 SLP314 T01101017 $

More Conditions Fewer Conditions

10-Day Weather Forecast

Almanac

Astronomy

May. 23, 2015 Rise Set
Actual Time
Civil Twilight
Nautical Twilight
Astronomical Twilight
Moon
Length of Visible Light
Length of Day
Tomorrow will be .
, % of the Moon is Illuminated

Today's Extremes

State Highs State Lows

Community

WunderPhotos

Upload Photos

1,823,467 photos uploaded!

WunderBlogs® & News

Nearby

Air Quality

  Air Quality AQ Index Pollutant
Not available.

Snow Depth

Station Depth Elevation

Earthquake Activity

City Distance Mag. Time & Date
Minimum magnitude displayed is 2.5.

Coastal Water Temperatures

Place Temperature

Stations

Nearby Weather Stations

Station Location Temp. Windchill Dew Point Humidity Wind Precip. Elev Updated Type